sensor_id;sensor_type;location;lat;lon;timestamp;temperature;humidity
54006;DHT22;39919;38.160;-122.260;2023-01-20T00:01:45;12.70;72.50
54006;DHT22;39919;38.160;-122.260;2023-01-20T00:04:14;12.70;71.90
54006;DHT22;39919;38.160;-122.260;2023-01-20T00:06:45;12.60;72.20
54006;DHT22;39919;38.160;-122.260;2023-01-20T00:09:16;12.60;72.80
54006;DHT22;39919;38.160;-122.260;2023-01-20T00:11:46;12.50;73.10
54006;DHT22;39919;38.160;-122.260;2023-01-20T00:14:15;12.50;72.80
54006;DHT22;39919;38.160;-122.260;2023-01-20T00:16:44;12.50;72.40
54006;DHT22;39919;38.160;-122.260;2023-01-20T00:19:13;12.40;72.60
54006;DHT22;39919;38.160;-122.260;2023-01-20T00:21:43;12.40;73.00
54006;DHT22;39919;38.160;-122.260;2023-01-20T00:24:12;12.30;73.30
54006;DHT22;39919;38.160;-122.260;2023-01-20T00:26:43;12.30;73.70
54006;DHT22;39919;38.160;-122.260;2023-01-20T00:29:12;12.20;73.90
54006;DHT22;39919;38.160;-122.260;2023-01-20T00:31:41;12.20;73.90
54006;DHT22;39919;38.160;-122.260;2023-01-20T00:34:13;12.10;73.80
54006;DHT22;39919;38.160;-122.260;2023-01-20T00:36:45;12.10;74.00
54006;DHT22;39919;38.160;-122.260;2023-01-20T00:39:14;12.10;74.00
54006;DHT22;39919;38.160;-122.260;2023-01-20T00:41:45;12.10;74.40
54006;DHT22;39919;38.160;-122.260;2023-01-20T00:44:14;12.00;74.40
54006;DHT22;39919;38.160;-122.260;2023-01-20T00:46:43;12.00;74.50
54006;DHT22;39919;38.160;-122.260;2023-01-20T00:49:12;11.90;74.40
54006;DHT22;39919;38.160;-122.260;2023-01-20T00:51:41;11.90;74.40
54006;DHT22;39919;38.160;-122.260;2023-01-20T00:54:11;11.80;74.50
54006;DHT22;39919;38.160;-122.260;2023-01-20T00:56:40;11.80;74.80
54006;DHT22;39919;38.160;-122.260;2023-01-20T00:59:11;11.80;75.00
54006;DHT22;39919;38.160;-122.260;2023-01-20T01:01:40;11.70;75.20
54006;DHT22;39919;38.160;-122.260;2023-01-20T01:04:10;11.70;76.00
54006;DHT22;39919;38.160;-122.260;2023-01-20T01:06:40;11.60;75.70
54006;DHT22;39919;38.160;-122.260;2023-01-20T01:09:09;11.60;75.90
54006;DHT22;39919;38.160;-122.260;2023-01-20T01:11:38;11.50;76.10
54006;DHT22;39919;38.160;-122.260;2023-01-20T01:14:07;11.50;76.30
54006;DHT22;39919;38.160;-122.260;2023-01-20T01:16:38;11.40;76.50
54006;DHT22;39919;38.160;-122.260;2023-01-20T01:19:07;11.40;76.60
54006;DHT22;39919;38.160;-122.260;2023-01-20T01:21:37;11.30;76.90
54006;DHT22;39919;38.160;-122.260;2023-01-20T01:24:06;11.20;77.20
54006;DHT22;39919;38.160;-122.260;2023-01-20T01:26:35;11.20;77.60
54006;DHT22;39919;38.160;-122.260;2023-01-20T01:29:04;11.10;77.70
54006;DHT22;39919;38.160;-122.260;2023-01-20T01:31:34;11.10;78.40
54006;DHT22;39919;38.160;-122.260;2023-01-20T01:34:05;10.90;81.50
54006;DHT22;39919;38.160;-122.260;2023-01-20T01:36:35;11.00;78.20
54006;DHT22;39919;38.160;-122.260;2023-01-20T01:39:04;10.90;78.60
54006;DHT22;39919;38.160;-122.260;2023-01-20T01:41:33;10.90;78.80
54006;DHT22;39919;38.160;-122.260;2023-01-20T01:44:06;10.80;78.90
54006;DHT22;39919;38.160;-122.260;2023-01-20T01:46:36;10.70;79.00
54006;DHT22;39919;38.160;-122.260;2023-01-20T01:49:09;10.60;79.50
54006;DHT22;39919;38.160;-122.260;2023-01-20T01:51:44;10.60;82.00
54006;DHT22;39919;38.160;-122.260;2023-01-20T01:54:17;10.50;80.10
54006;DHT22;39919;38.160;-122.260;2023-01-20T01:56:49;10.40;80.30
54006;DHT22;39919;38.160;-122.260;2023-01-20T01:59:20;10.30;80.70
54006;DHT22;39919;38.160;-122.260;2023-01-20T02:01:50;10.30;81.20
54006;DHT22;39919;38.160;-122.260;2023-01-20T02:04:23;10.30;81.90
54006;DHT22;39919;38.160;-122.260;2023-01-20T02:06:55;10.50;83.90
54006;DHT22;39919;38.160;-122.260;2023-01-20T02:09:26;10.10;81.30
54006;DHT22;39919;38.160;-122.260;2023-01-20T02:11:59;10.00;81.90
54006;DHT22;39919;38.160;-122.260;2023-01-20T02:14:31;10.10;84.90
54006;DHT22;39919;38.160;-122.260;2023-01-20T02:17:07;9.70;99.90
54006;DHT22;39919;38.160;-122.260;2023-01-20T02:28:26;9.50;99.90
54006;DHT22;39919;38.160;-122.260;2023-01-20T02:31:22;9.40;99.90
54006;DHT22;39919;38.160;-122.260;2023-01-20T02:33:56;9.40;99.90
54006;DHT22;39919;38.160;-122.260;2023-01-20T02:36:31;9.40;92.40
54006;DHT22;39919;38.160;-122.260;2023-01-20T02:39:04;9.20;85.40
54006;DHT22;39919;38.160;-122.260;2023-01-20T02:41:40;9.20;85.80
54006;DHT22;39919;38.160;-122.260;2023-01-20T02:44:16;9.10;86.20
54006;DHT22;39919;38.160;-122.260;2023-01-20T02:47:08;9.00;86.70
54006;DHT22;39919;38.160;-122.260;2023-01-20T02:49:45;9.00;87.00
54006;DHT22;39919;38.160;-122.260;2023-01-20T02:52:19;8.90;87.60
54006;DHT22;39919;38.160;-122.260;2023-01-20T02:54:52;8.80;88.50
54006;DHT22;39919;38.160;-122.260;2023-01-20T02:57:26;8.80;88.90
54006;DHT22;39919;38.160;-122.260;2023-01-20T03:00:02;8.70;89.10
54006;DHT22;39919;38.160;-122.260;2023-01-20T03:02:33;8.70;89.70
54006;DHT22;39919;38.160;-122.260;2023-01-20T03:05:09;8.60;89.80
54006;DHT22;39919;38.160;-122.260;2023-01-20T03:07:41;8.50;90.10
54006;DHT22;39919;38.160;-122.260;2023-01-20T03:10:14;8.50;90.30
54006;DHT22;39919;38.160;-122.260;2023-01-20T03:12:51;8.40;90.60
54006;DHT22;39919;38.160;-122.260;2023-01-20T03:15:23;8.40;90.90
54006;DHT22;39919;38.160;-122.260;2023-01-20T03:17:53;8.30;91.10
54006;DHT22;39919;38.160;-122.260;2023-01-20T03:20:24;8.30;91.00
54006;DHT22;39919;38.160;-122.260;2023-01-20T03:22:53;8.20;90.50
54006;DHT22;39919;38.160;-122.260;2023-01-20T03:25:23;8.20;90.10
54006;DHT22;39919;38.160;-122.260;2023-01-20T03:27:53;8.20;89.70
54006;DHT22;39919;38.160;-122.260;2023-01-20T03:30:25;8.20;89.30
54006;DHT22;39919;38.160;-122.260;2023-01-20T03:32:58;8.10;89.10
54006;DHT22;39919;38.160;-122.260;2023-01-20T03:35:29;8.10;88.90
54006;DHT22;39919;38.160;-122.260;2023-01-20T03:37:58;8.10;88.20
54006;DHT22;39919;38.160;-122.260;2023-01-20T03:40:30;8.10;87.70
54006;DHT22;39919;38.160;-122.260;2023-01-20T03:43:05;8.10;86.70
54006;DHT22;39919;38.160;-122.260;2023-01-20T03:45:42;8.00;85.80
54006;DHT22;39919;38.160;-122.260;2023-01-20T03:48:17;8.00;85.40
54006;DHT22;39919;38.160;-122.260;2023-01-20T03:50:54;8.10;84.80
54006;DHT22;39919;38.160;-122.260;2023-01-20T03:53:30;8.00;84.60
54006;DHT22;39919;38.160;-122.260;2023-01-20T03:56:04;8.00;84.30
54006;DHT22;39919;38.160;-122.260;2023-01-20T03:58:37;8.00;83.90
54006;DHT22;39919;38.160;-122.260;2023-01-20T04:01:09;8.00;82.60
54006;DHT22;39919;38.160;-122.260;2023-01-20T04:03:41;7.90;81.90
54006;DHT22;39919;38.160;-122.260;2023-01-20T04:06:14;7.90;81.50
54006;DHT22;39919;38.160;-122.260;2023-01-20T04:08:47;7.90;81.60
54006;DHT22;39919;38.160;-122.260;2023-01-20T04:11:18;7.90;81.10
54006;DHT22;39919;38.160;-122.260;2023-01-20T04:13:49;7.90;80.40
54006;DHT22;39919;38.160;-122.260;2023-01-20T04:16:19;7.90;80.20
54006;DHT22;39919;38.160;-122.260;2023-01-20T04:18:49;7.90;80.00
54006;DHT22;39919;38.160;-122.260;2023-01-20T04:21:23;7.90;79.30
54006;DHT22;39919;38.160;-122.260;2023-01-20T04:23:59;7.90;79.10
54006;DHT22;39919;38.160;-122.260;2023-01-20T04:26:30;7.80;79.30
54006;DHT22;39919;38.160;-122.260;2023-01-20T04:29:14;7.90;79.40
54006;DHT22;39919;38.160;-122.260;2023-01-20T04:31:43;7.80;77.70
54006;DHT22;39919;38.160;-122.260;2023-01-20T04:34:15;7.80;77.50
54006;DHT22;39919;38.160;-122.260;2023-01-20T04:36:45;7.80;77.40
54006;DHT22;39919;38.160;-122.260;2023-01-20T04:39:15;7.80;76.70
54006;DHT22;39919;38.160;-122.260;2023-01-20T04:41:44;7.80;76.90
54006;DHT22;39919;38.160;-122.260;2023-01-20T04:44:13;7.80;76.70
54006;DHT22;39919;38.160;-122.260;2023-01-20T04:46:43;7.80;77.10
54006;DHT22;39919;38.160;-122.260;2023-01-20T04:49:13;7.80;76.60
54006;DHT22;39919;38.160;-122.260;2023-01-20T04:51:44;7.80;75.90
54006;DHT22;39919;38.160;-122.260;2023-01-20T04:54:13;7.70;76.00
54006;DHT22;39919;38.160;-122.260;2023-01-20T04:56:42;7.70;76.50
54006;DHT22;39919;38.160;-122.260;2023-01-20T04:59:11;7.70;76.60
54006;DHT22;39919;38.160;-122.260;2023-01-20T05:01:40;7.70;77.20
54006;DHT22;39919;38.160;-122.260;2023-01-20T05:04:09;7.70;77.60
54006;DHT22;39919;38.160;-122.260;2023-01-20T05:06:39;7.60;76.60
54006;DHT22;39919;38.160;-122.260;2023-01-20T05:09:11;7.60;76.70
54006;DHT22;39919;38.160;-122.260;2023-01-20T05:11:41;7.60;77.20
54006;DHT22;39919;38.160;-122.260;2023-01-20T05:14:10;7.50;77.60
54006;DHT22;39919;38.160;-122.260;2023-01-20T05:16:40;7.50;75.80
54006;DHT22;39919;38.160;-122.260;2023-01-20T05:19:10;7.50;75.30
54006;DHT22;39919;38.160;-122.260;2023-01-20T05:21:41;7.40;74.90
54006;DHT22;39919;38.160;-122.260;2023-01-20T05:24:12;7.40;74.70
54006;DHT22;39919;38.160;-122.260;2023-01-20T05:26:41;7.40;75.60
54006;DHT22;39919;38.160;-122.260;2023-01-20T05:29:10;7.40;76.30
54006;DHT22;39919;38.160;-122.260;2023-01-20T05:31:39;7.40;74.40
54006;DHT22;39919;38.160;-122.260;2023-01-20T05:34:09;7.30;73.80
54006;DHT22;39919;38.160;-122.260;2023-01-20T05:36:38;7.30;73.60
54006;DHT22;39919;38.160;-122.260;2023-01-20T05:39:07;7.40;73.40
54006;DHT22;39919;38.160;-122.260;2023-01-20T05:41:38;7.30;73.70
54006;DHT22;39919;38.160;-122.260;2023-01-20T05:44:08;7.40;74.20
54006;DHT22;39919;38.160;-122.260;2023-01-20T05:46:37;7.40;74.80
54006;DHT22;39919;38.160;-122.260;2023-01-20T05:49:06;7.40;74.20
54006;DHT22;39919;38.160;-122.260;2023-01-20T05:51:35;7.40;74.50
54006;DHT22;39919;38.160;-122.260;2023-01-20T05:54:04;7.40;74.70
54006;DHT22;39919;38.160;-122.260;2023-01-20T05:56:33;7.40;74.90
54006;DHT22;39919;38.160;-122.260;2023-01-20T05:59:04;7.40;74.50
54006;DHT22;39919;38.160;-122.260;2023-01-20T06:01:33;7.30;75.00
54006;DHT22;39919;38.160;-122.260;2023-01-20T06:04:03;7.40;75.50
54006;DHT22;39919;38.160;-122.260;2023-01-20T06:06:32;7.30;75.90
54006;DHT22;39919;38.160;-122.260;2023-01-20T06:09:04;7.30;76.20
54006;DHT22;39919;38.160;-122.260;2023-01-20T06:11:35;7.30;76.50
54006;DHT22;39919;38.160;-122.260;2023-01-20T06:14:06;7.20;77.00
54006;DHT22;39919;38.160;-122.260;2023-01-20T06:16:35;7.20;77.20
54006;DHT22;39919;38.160;-122.260;2023-01-20T06:19:04;7.10;77.20
54006;DHT22;39919;38.160;-122.260;2023-01-20T06:21:33;7.10;76.90
54006;DHT22;39919;38.160;-122.260;2023-01-20T06:24:02;7.00;77.30
54006;DHT22;39919;38.160;-122.260;2023-01-20T06:26:32;7.00;77.70
54006;DHT22;39919;38.160;-122.260;2023-01-20T06:29:01;7.00;78.10
54006;DHT22;39919;38.160;-122.260;2023-01-20T06:31:32;6.90;76.70
54006;DHT22;39919;38.160;-122.260;2023-01-20T06:34:01;6.90;75.60
54006;DHT22;39919;38.160;-122.260;2023-01-20T06:36:30;6.80;77.00
54006;DHT22;39919;38.160;-122.260;2023-01-20T06:39:00;6.80;77.60
54006;DHT22;39919;38.160;-122.260;2023-01-20T06:41:29;6.70;77.80
54006;DHT22;39919;38.160;-122.260;2023-01-20T06:43:58;6.70;77.90
54006;DHT22;39919;38.160;-122.260;2023-01-20T06:46:27;6.70;77.70
54006;DHT22;39919;38.160;-122.260;2023-01-20T06:48:58;6.60;77.10
54006;DHT22;39919;38.160;-122.260;2023-01-20T06:51:28;6.60;77.00
54006;DHT22;39919;38.160;-122.260;2023-01-20T06:54:02;6.50;76.40
54006;DHT22;39919;38.160;-122.260;2023-01-20T06:56:31;6.50;76.40
54006;DHT22;39919;38.160;-122.260;2023-01-20T06:59:00;6.50;76.70
54006;DHT22;39919;38.160;-122.260;2023-01-20T07:01:30;6.50;76.70
54006;DHT22;39919;38.160;-122.260;2023-01-20T07:04:01;6.40;76.90
54006;DHT22;39919;38.160;-122.260;2023-01-20T07:06:31;6.40;76.80
54006;DHT22;39919;38.160;-122.260;2023-01-20T07:09:01;6.40;77.10
54006;DHT22;39919;38.160;-122.260;2023-01-20T07:11:31;6.90;77.80
54006;DHT22;39919;38.160;-122.260;2023-01-20T07:14:01;6.30;77.60
54006;DHT22;39919;38.160;-122.260;2023-01-20T07:16:30;6.30;77.90
54006;DHT22;39919;38.160;-122.260;2023-01-20T07:19:03;6.20;78.20
54006;DHT22;39919;38.160;-122.260;2023-01-20T07:21:33;6.20;78.30
54006;DHT22;39919;38.160;-122.260;2023-01-20T07:24:02;6.20;78.20
54006;DHT22;39919;38.160;-122.260;2023-01-20T07:26:31;6.20;77.50
54006;DHT22;39919;38.160;-122.260;2023-01-20T07:29:02;6.20;77.50
54006;DHT22;39919;38.160;-122.260;2023-01-20T07:31:31;6.20;77.70
54006;DHT22;39919;38.160;-122.260;2023-01-20T07:34:02;6.20;77.60
54006;DHT22;39919;38.160;-122.260;2023-01-20T07:36:31;5.60;77.30
54006;DHT22;39919;38.160;-122.260;2023-01-20T07:39:00;6.20;78.10
54006;DHT22;39919;38.160;-122.260;2023-01-20T07:41:29;6.20;78.50
54006;DHT22;39919;38.160;-122.260;2023-01-20T07:43:58;6.20;78.80
54006;DHT22;39919;38.160;-122.260;2023-01-20T07:46:27;6.20;78.70
54006;DHT22;39919;38.160;-122.260;2023-01-20T07:48:56;6.30;78.70
54006;DHT22;39919;38.160;-122.260;2023-01-20T07:51:27;6.30;78.80
54006;DHT22;39919;38.160;-122.260;2023-01-20T07:53:56;6.20;78.40
54006;DHT22;39919;38.160;-122.260;2023-01-20T07:56:26;6.20;78.30
54006;DHT22;39919;38.160;-122.260;2023-01-20T07:58:56;6.30;78.40
54006;DHT22;39919;38.160;-122.260;2023-01-20T08:01:27;6.20;78.60
54006;DHT22;39919;38.160;-122.260;2023-01-20T08:03:57;6.20;78.60
54006;DHT22;39919;38.160;-122.260;2023-01-20T08:06:29;6.20;78.60
54006;DHT22;39919;38.160;-122.260;2023-01-20T08:09:00;6.20;78.70
54006;DHT22;39919;38.160;-122.260;2023-01-20T08:11:29;6.10;78.70
54006;DHT22;39919;38.160;-122.260;2023-01-20T08:13:59;6.10;78.70
54006;DHT22;39919;38.160;-122.260;2023-01-20T08:16:28;6.10;78.40
54006;DHT22;39919;38.160;-122.260;2023-01-20T08:18:58;6.10;78.70
54006;DHT22;39919;38.160;-122.260;2023-01-20T08:21:30;6.10;79.00
54006;DHT22;39919;38.160;-122.260;2023-01-20T08:24:01;6.10;79.30
54006;DHT22;39919;38.160;-122.260;2023-01-20T08:26:31;6.00;79.60
54006;DHT22;39919;38.160;-122.260;2023-01-20T08:29:05;6.00;79.10
54006;DHT22;39919;38.160;-122.260;2023-01-20T08:31:35;6.00;79.30
54006;DHT22;39919;38.160;-122.260;2023-01-20T08:34:06;6.00;79.20
54006;DHT22;39919;38.160;-122.260;2023-01-20T08:36:39;5.90;79.20
54006;DHT22;39919;38.160;-122.260;2023-01-20T08:39:13;5.90;79.50
54006;DHT22;39919;38.160;-122.260;2023-01-20T08:41:44;5.90;78.90
54006;DHT22;39919;38.160;-122.260;2023-01-20T08:44:14;5.90;78.20
54006;DHT22;39919;38.160;-122.260;2023-01-20T08:46:44;5.90;77.30
54006;DHT22;39919;38.160;-122.260;2023-01-20T08:49:18;5.90;76.40
54006;DHT22;39919;38.160;-122.260;2023-01-20T08:51:50;5.90;76.10
54006;DHT22;39919;38.160;-122.260;2023-01-20T08:54:19;5.90;75.60
54006;DHT22;39919;38.160;-122.260;2023-01-20T08:56:49;5.90;75.00
54006;DHT22;39919;38.160;-122.260;2023-01-20T08:59:19;5.90;74.30
54006;DHT22;39919;38.160;-122.260;2023-01-20T09:01:48;6.00;74.00
54006;DHT22;39919;38.160;-122.260;2023-01-20T09:04:17;6.10;74.00
54006;DHT22;39919;38.160;-122.260;2023-01-20T09:06:50;6.10;73.50
54006;DHT22;39919;38.160;-122.260;2023-01-20T09:09:20;6.20;73.80
54006;DHT22;39919;38.160;-122.260;2023-01-20T09:11:50;6.20;73.60
54006;DHT22;39919;38.160;-122.260;2023-01-20T09:14:19;6.30;73.80
54006;DHT22;39919;38.160;-122.260;2023-01-20T09:16:48;6.30;73.50
54006;DHT22;39919;38.160;-122.260;2023-01-20T09:19:18;6.30;73.20
54006;DHT22;39919;38.160;-122.260;2023-01-20T09:21:47;6.40;72.00
54006;DHT22;39919;38.160;-122.260;2023-01-20T09:24:18;6.40;71.00
54006;DHT22;39919;38.160;-122.260;2023-01-20T09:26:47;6.50;70.80
54006;DHT22;39919;38.160;-122.260;2023-01-20T09:29:18;6.50;70.30
54006;DHT22;39919;38.160;-122.260;2023-01-20T09:31:50;6.60;69.90
54006;DHT22;39919;38.160;-122.260;2023-01-20T09:34:25;6.60;69.40
54006;DHT22;39919;38.160;-122.260;2023-01-20T09:36:56;6.70;69.20
54006;DHT22;39919;38.160;-122.260;2023-01-20T09:39:47;6.70;69.20
54006;DHT22;39919;38.160;-122.260;2023-01-20T09:42:43;6.70;68.40
54006;DHT22;39919;38.160;-122.260;2023-01-20T09:45:46;6.80;67.80
54006;DHT22;39919;38.160;-122.260;2023-01-20T09:48:26;6.90;67.70
54006;DHT22;39919;38.160;-122.260;2023-01-20T09:51:20;6.90;67.30
54006;DHT22;39919;38.160;-122.260;2023-01-20T09:54:12;6.90;67.10
54006;DHT22;39919;38.160;-122.260;2023-01-20T09:56:47;7.00;66.80
54006;DHT22;39919;38.160;-122.260;2023-01-20T09:59:21;7.00;66.20
54006;DHT22;39919;38.160;-122.260;2023-01-20T10:01:53;7.00;65.00
54006;DHT22;39919;38.160;-122.260;2023-01-20T10:04:27;7.10;63.60
54006;DHT22;39919;38.160;-122.260;2023-01-20T10:07:05;7.10;63.80
54006;DHT22;39919;38.160;-122.260;2023-01-20T10:09:40;7.10;63.90
54006;DHT22;39919;38.160;-122.260;2023-01-20T10:12:14;7.20;62.90
54006;DHT22;39919;38.160;-122.260;2023-01-20T10:14:49;7.30;63.20
54006;DHT22;39919;38.160;-122.260;2023-01-20T10:17:24;7.30;61.90
54006;DHT22;39919;38.160;-122.260;2023-01-20T10:19:58;7.40;62.40
54006;DHT22;39919;38.160;-122.260;2023-01-20T10:22:33;7.40;62.00
54006;DHT22;39919;38.160;-122.260;2023-01-20T10:25:11;7.50;62.20
54006;DHT22;39919;38.160;-122.260;2023-01-20T10:27:50;7.50;61.80
54006;DHT22;39919;38.160;-122.260;2023-01-20T10:30:22;7.50;62.40
54006;DHT22;39919;38.160;-122.260;2023-01-20T10:32:56;7.60;61.70
54006;DHT22;39919;38.160;-122.260;2023-01-20T10:35:28;7.60;61.70
54006;DHT22;39919;38.160;-122.260;2023-01-20T10:37:59;7.60;61.70
54006;DHT22;39919;38.160;-122.260;2023-01-20T10:40:33;7.60;61.40
54006;DHT22;39919;38.160;-122.260;2023-01-20T10:43:10;7.60;60.60
54006;DHT22;39919;38.160;-122.260;2023-01-20T10:45:54;7.70;61.10
54006;DHT22;39919;38.160;-122.260;2023-01-20T10:48:38;7.60;61.50
54006;DHT22;39919;38.160;-122.260;2023-01-20T10:51:13;7.60;61.10
54006;DHT22;39919;38.160;-122.260;2023-01-20T10:53:52;7.60;60.40
54006;DHT22;39919;38.160;-122.260;2023-01-20T10:56:34;7.70;60.90
54006;DHT22;39919;38.160;-122.260;2023-01-20T10:59:13;7.70;60.40
54006;DHT22;39919;38.160;-122.260;2023-01-20T11:01:45;7.70;60.00
54006;DHT22;39919;38.160;-122.260;2023-01-20T11:04:18;7.70;60.00
54006;DHT22;39919;38.160;-122.260;2023-01-20T11:06:50;7.70;60.40
54006;DHT22;39919;38.160;-122.260;2023-01-20T11:09:27;7.70;60.30
54006;DHT22;39919;38.160;-122.260;2023-01-20T11:11:59;7.70;60.60
54006;DHT22;39919;38.160;-122.260;2023-01-20T11:14:31;7.60;60.70
54006;DHT22;39919;38.160;-122.260;2023-01-20T11:17:03;7.70;59.90
54006;DHT22;39919;38.160;-122.260;2023-01-20T11:19:52;7.70;59.30
54006;DHT22;39919;38.160;-122.260;2023-01-20T11:22:27;7.70;60.20
54006;DHT22;39919;38.160;-122.260;2023-01-20T11:24:58;7.70;58.90
54006;DHT22;39919;38.160;-122.260;2023-01-20T11:27:33;7.70;58.90
54006;DHT22;39919;38.160;-122.260;2023-01-20T11:30:19;7.70;59.20
54006;DHT22;39919;38.160;-122.260;2023-01-20T11:33:08;7.70;59.20
54006;DHT22;39919;38.160;-122.260;2023-01-20T11:35:57;7.70;58.10
54006;DHT22;39919;38.160;-122.260;2023-01-20T11:38:27;7.80;58.80
54006;DHT22;39919;38.160;-122.260;2023-01-20T11:40:57;7.80;59.20
54006;DHT22;39919;38.160;-122.260;2023-01-20T11:43:34;7.80;59.00
54006;DHT22;39919;38.160;-122.260;2023-01-20T11:46:19;7.80;58.80
54006;DHT22;39919;38.160;-122.260;2023-01-20T11:48:49;7.70;59.00
54006;DHT22;39919;38.160;-122.260;2023-01-20T11:51:20;7.70;59.50
54006;DHT22;39919;38.160;-122.260;2023-01-20T11:53:53;7.70;59.20
54006;DHT22;39919;38.160;-122.260;2023-01-20T11:56:38;7.70;59.20
54006;DHT22;39919;38.160;-122.260;2023-01-20T11:59:22;7.70;59.30
54006;DHT22;39919;38.160;-122.260;2023-01-20T12:01:57;7.70;59.30
54006;DHT22;39919;38.160;-122.260;2023-01-20T12:04:49;7.70;59.80
54006;DHT22;39919;38.160;-122.260;2023-01-20T12:07:25;7.70;59.70
54006;DHT22;39919;38.160;-122.260;2023-01-20T12:09:59;7.70;59.60
54006;DHT22;39919;38.160;-122.260;2023-01-20T12:12:37;7.70;59.70
54006;DHT22;39919;38.160;-122.260;2023-01-20T12:15:14;7.60;59.60
54006;DHT22;39919;38.160;-122.260;2023-01-20T12:17:55;7.60;60.60
54006;DHT22;39919;38.160;-122.260;2023-01-20T12:20:28;7.60;61.40
54006;DHT22;39919;38.160;-122.260;2023-01-20T12:23:07;7.50;61.10
54006;DHT22;39919;38.160;-122.260;2023-01-20T12:25:51;7.50;61.20
54006;DHT22;39919;38.160;-122.260;2023-01-20T12:28:27;7.40;62.10
54006;DHT22;39919;38.160;-122.260;2023-01-20T12:30:59;7.30;61.00
54006;DHT22;39919;38.160;-122.260;2023-01-20T12:33:32;7.30;60.20
54006;DHT22;39919;38.160;-122.260;2023-01-20T12:36:25;7.30;61.00
54006;DHT22;39919;38.160;-122.260;2023-01-20T12:39:24;7.30;59.90
54006;DHT22;39919;38.160;-122.260;2023-01-20T12:42:16;7.20;59.60
54006;DHT22;39919;38.160;-122.260;2023-01-20T12:44:50;7.20;59.50
54006;DHT22;39919;38.160;-122.260;2023-01-20T12:47:32;7.20;58.60
54006;DHT22;39919;38.160;-122.260;2023-01-20T12:53:24;7.20;58.80
54006;DHT22;39919;38.160;-122.260;2023-01-20T12:56:06;7.20;59.90
54006;DHT22;39919;38.160;-122.260;2023-01-20T12:58:46;7.20;57.90
54006;DHT22;39919;38.160;-122.260;2023-01-20T13:01:33;7.20;57.50
54006;DHT22;39919;38.160;-122.260;2023-01-20T13:04:27;7.20;58.70
54006;DHT22;39919;38.160;-122.260;2023-01-20T13:07:09;7.20;58.20
54006;DHT22;39919;38.160;-122.260;2023-01-20T13:12:47;7.20;59.80
54006;DHT22;39919;38.160;-122.260;2023-01-20T13:15:24;7.20;61.00
54006;DHT22;39919;38.160;-122.260;2023-01-20T13:18:15;7.20;61.60
54006;DHT22;39919;38.160;-122.260;2023-01-20T13:20:48;7.20;60.60
54006;DHT22;39919;38.160;-122.260;2023-01-20T13:23:24;7.10;60.40
54006;DHT22;39919;38.160;-122.260;2023-01-20T13:25:55;7.10;61.50
54006;DHT22;39919;38.160;-122.260;2023-01-20T13:28:26;7.10;62.00
54006;DHT22;39919;38.160;-122.260;2023-01-20T13:30:56;7.00;62.30
54006;DHT22;39919;38.160;-122.260;2023-01-20T13:33:35;7.00;62.80
54006;DHT22;39919;38.160;-122.260;2023-01-20T13:36:16;6.90;62.30
54006;DHT22;39919;38.160;-122.260;2023-01-20T13:38:48;6.90;62.90
54006;DHT22;39919;38.160;-122.260;2023-01-20T13:41:47;6.80;63.60
54006;DHT22;39919;38.160;-122.260;2023-01-20T13:44:33;6.80;64.00
54006;DHT22;39919;38.160;-122.260;2023-01-20T13:47:03;6.80;64.80
54006;DHT22;39919;38.160;-122.260;2023-01-20T13:49:47;6.70;65.70
54006;DHT22;39919;38.160;-122.260;2023-01-20T13:55:52;6.50;65.80
54006;DHT22;39919;38.160;-122.260;2023-01-20T13:58:24;6.40;66.00
54006;DHT22;39919;38.160;-122.260;2023-01-20T14:00:55;6.40;66.20
54006;DHT22;39919;38.160;-122.260;2023-01-20T14:03:26;6.30;66.30
54006;DHT22;39919;38.160;-122.260;2023-01-20T14:05:57;6.20;66.40
54006;DHT22;39919;38.160;-122.260;2023-01-20T14:08:29;6.10;67.20
54006;DHT22;39919;38.160;-122.260;2023-01-20T14:11:15;6.10;67.70
54006;DHT22;39919;38.160;-122.260;2023-01-20T14:13:52;6.00;68.00
54006;DHT22;39919;38.160;-122.260;2023-01-20T14:16:23;5.90;68.10
54006;DHT22;39919;38.160;-122.260;2023-01-20T14:18:54;5.90;68.30
54006;DHT22;39919;38.160;-122.260;2023-01-20T14:21:26;5.80;68.50
54006;DHT22;39919;38.160;-122.260;2023-01-20T14:23:55;5.70;68.20
54006;DHT22;39919;38.160;-122.260;2023-01-20T14:26:28;5.60;67.60
54006;DHT22;39919;38.160;-122.260;2023-01-20T14:28:59;5.60;67.90
54006;DHT22;39919;38.160;-122.260;2023-01-20T14:31:31;5.50;68.50
54006;DHT22;39919;38.160;-122.260;2023-01-20T14:34:25;5.40;69.10
54006;DHT22;39919;38.160;-122.260;2023-01-20T14:36:56;5.40;69.20
54006;DHT22;39919;38.160;-122.260;2023-01-20T14:39:27;5.30;69.60
54006;DHT22;39919;38.160;-122.260;2023-01-20T14:41:59;5.30;70.20
54006;DHT22;39919;38.160;-122.260;2023-01-20T14:44:29;5.20;70.50
54006;DHT22;39919;38.160;-122.260;2023-01-20T14:47:01;5.20;71.00
54006;DHT22;39919;38.160;-122.260;2023-01-20T14:49:33;5.10;71.20
54006;DHT22;39919;38.160;-122.260;2023-01-20T14:52:05;5.10;71.20
54006;DHT22;39919;38.160;-122.260;2023-01-20T14:54:37;5.00;71.60
54006;DHT22;39919;38.160;-122.260;2023-01-20T14:57:29;5.00;71.90
54006;DHT22;39919;38.160;-122.260;2023-01-20T15:00:13;4.90;72.00
54006;DHT22;39919;38.160;-122.260;2023-01-20T15:02:47;4.80;70.80
54006;DHT22;39919;38.160;-122.260;2023-01-20T15:05:21;4.80;70.10
54006;DHT22;39919;38.160;-122.260;2023-01-20T15:08:15;4.70;69.90
54006;DHT22;39919;38.160;-122.260;2023-01-20T15:13:33;4.70;70.70
54006;DHT22;39919;38.160;-122.260;2023-01-20T15:16:15;4.70;70.40
54006;DHT22;39919;38.160;-122.260;2023-01-20T15:21:47;4.70;71.10
54006;DHT22;39919;38.160;-122.260;2023-01-20T15:24:17;4.60;71.00
54006;DHT22;39919;38.160;-122.260;2023-01-20T15:26:48;4.60;70.30
54006;DHT22;39919;38.160;-122.260;2023-01-20T15:29:22;4.60;70.10
54006;DHT22;39919;38.160;-122.260;2023-01-20T15:31:53;4.60;69.80
54006;DHT22;39919;38.160;-122.260;2023-01-20T15:34:25;4.70;69.90
54006;DHT22;39919;38.160;-122.260;2023-01-20T15:36:55;4.70;70.00
54006;DHT22;39919;38.160;-122.260;2023-01-20T15:39:26;4.80;70.00
54006;DHT22;39919;38.160;-122.260;2023-01-20T15:41:56;4.80;69.90
54006;DHT22;39919;38.160;-122.260;2023-01-20T15:44:30;4.90;69.60
54006;DHT22;39919;38.160;-122.260;2023-01-20T15:46:59;4.90;69.50
54006;DHT22;39919;38.160;-122.260;2023-01-20T15:49:28;5.00;69.30
54006;DHT22;39919;38.160;-122.260;2023-01-20T15:51:58;5.00;69.40
54006;DHT22;39919;38.160;-122.260;2023-01-20T15:54:27;5.00;69.10
54006;DHT22;39919;38.160;-122.260;2023-01-20T15:56:59;5.10;69.20
54006;DHT22;39919;38.160;-122.260;2023-01-20T15:59:30;5.10;69.50
54006;DHT22;39919;38.160;-122.260;2023-01-20T16:01:59;5.20;69.70